Time;durP1;ratioP1;P1;durP2;ratioP2;P2;SDS_P1;SDS_P2;PMS_P1;PMS_P2;Temp;Humidity;BMP_temperature;BMP_pressure;BME280_temperature;BME280_humidity;BME280_pressure;Samples;Min_cycle;Max_cycle;Signal;HPM_P1;HPM_P2
2022/04/10 00:00:12;;;;;;;;;;;;;;;;;;1283551;23;905;-24
2022/04/10 00:00:46;;;;;;;;;;;;;;;;;;1283816;23;1023;-25
2022/04/10 00:01:16;;;;;;;;;;;;;;;;;;1283536;23;892;-24
2022/04/10 00:01:46;;;;;;;;;;;;;;;;;;1283745;23;916;-24
2022/04/10 00:02:17;;;;;;;;;;;;;;;;;;1283412;23;976;-24
2022/04/10 00:02:47;;;;;;;;;;;;;;;;;;1283834;23;920;-24
2022/04/10 00:03:19;;;;;;;;;;;;;;;;;;1283495;23;880;-24
2022/04/10 00:03:49;;;;;;;;;;;;;;;;;;1283660;23;972;-24
2022/04/10 00:04:20;;;;;;;;;;;;;;;;;;1283337;23;984;-24
2022/04/10 00:04:50;;;;;;;;;;;;;;;;;;1283900;23;995;-24
2022/04/10 00:05:20;;;;;;;;;;;;;;;;;;1283211;23;1038;-24
2022/04/10 00:05:52;;;;;;;;;;;;;;;;;;1283790;23;900;-24
2022/04/10 00:06:22;;;;;;;;;;;;;;;;;;1283509;23;945;-24
2022/04/10 00:06:53;;;;;;;;;;;;;;;;;;1289397;23;1087;-24
2022/04/10 00:07:23;;;;;;;;;;;;;;;;;;1289443;23;917;-24
2022/04/10 00:07:53;;;;;;;;;;;;;;;;;;1289576;23;1062;-24
2022/04/10 00:08:24;;;;;;;;;;;;;;;;;;1289059;23;937;-24
2022/04/10 00:08:54;;;;;;;;;;;;;;;;;;1283803;23;939;-24
2022/04/10 00:09:24;;;;;;;;;;;;;;;;;;1283444;23;966;-24
2022/04/10 00:09:55;;;;;;;;;;;;;;;;;;1283677;23;1180;-25
2022/04/10 00:10:25;;;;;;;;;;;;;;;;;;1283458;23;871;-24
2022/04/10 00:10:56;;;;;;;;;;;;;;;;;;1283592;23;844;-24
2022/04/10 00:11:26;;;;;;;;;;;;;;;;;;1283632;23;934;-25
2022/04/10 00:11:59;;;;;;;;;;;;;;;;;;1283579;23;1152;-24
2022/04/10 00:12:32;;;;;;;;;;;;;;;;;;1283833;23;945;-24
2022/04/10 00:13:02;;;;;;;;;;;;;;;;;;1283484;23;956;-23
2022/04/10 00:13:32;;;;;;;;;;;;;;;;;;1283663;23;892;-24
2022/04/10 00:14:03;;;;;;;;;;;;;;;;;;1283545;23;1901;-24
2022/04/10 00:14:33;;;;;;;;;;;;;;;;;;1283606;23;935;-24
2022/04/10 00:15:04;;;;;;;;;;;;;;;;;;1283544;23;927;-24
2022/04/10 00:15:34;;;;;;;;;;;;;;;;;;1283699;23;940;-24
2022/04/10 00:16:05;;;;;;;;;;;;;;;;;;1283421;23;1030;-24
2022/04/10 00:16:36;;;;;;;;;;;;;;;;;;1283753;23;927;-25
2022/04/10 00:17:06;;;;;;;;;;;;;;;;;;1283627;23;892;-25
2022/04/10 00:17:37;;;;;;;;;;;;;;;;;;1283433;23;1184;-25
2022/04/10 00:18:07;;;;;;;;;;;;;;;;;;1283690;23;912;-24
2022/04/10 00:18:39;;;;;;;;;;;;;;;;;;1283663;23;1039;-24
2022/04/10 00:19:09;;;;;;;;;;;;;;;;;;1283596;23;872;-24
2022/04/10 00:19:40;;;;;;;;;;;;;;;;;;1283807;23;995;-24
2022/04/10 00:20:11;;;;;;;;;;;;;;;;;;1283505;23;1035;-24
2022/04/10 00:20:42;;;;;;;;;;;;;;;;;;1283489;23;998;-24
2022/04/10 00:21:13;;;;;;;;;;;;;;;;;;1283445;23;1031;-24
2022/04/10 00:21:45;;;;;;;;;;;;;;;;;;1283780;23;1041;-24
2022/04/10 00:22:16;;;;;;;;;;;;;;;;;;1283459;23;1015;-25
2022/04/10 00:22:47;;;;;;;;;;;;;;;;;;1283649;23;1012;-24
2022/04/10 00:23:17;;;;;;;;;;;;;;;;;;1283624;23;1117;-24
2022/04/10 00:23:48;;;;;;;;;;;;;;;;;;1283702;23;952;-24
2022/04/10 00:24:18;;;;;;;;;;;;;;;;;;1283478;23;995;-24
2022/04/10 00:24:48;;;;;;;;;;;;;;;;;;1283749;23;923;-24
2022/04/10 00:25:19;;;;;;;;;;;;;;;;;;1283310;23;1034;-24
2022/04/10 00:25:50;;;;;;;;;;;;;;;;;;1283606;23;1020;-25
2022/04/10 00:26:20;;;;;;;;;;;;;;;;;;1283566;23;891;-24
2022/04/10 00:26:51;;;;;;;;;;;;;;;;;;1283662;23;1757;-24
2022/04/10 00:27:21;;;;;;;;;;;;;;;;;;1283641;23;897;-24
2022/04/10 00:27:52;;;;;;;;;;;;;;;;;;1283225;23;1262;-24
2022/04/10 00:28:22;;;;;;;;;;;;;;;;;;1282927;23;988;-24
2022/04/10 00:28:53;;;;;;;;;;;;;;;;;;1283325;23;948;-24
2022/04/10 00:29:24;;;;;;;;;;;;;;;;;;1282969;23;1174;-24
2022/04/10 00:29:54;;;;;;;;;;;;;;;;;;1283134;23;1671;-24
2022/04/10 00:30:25;;;;;;;;;;;;;;;;;;1276957;23;932;-24
2022/04/10 00:30:55;;;;;;;;;;;;;;;;;;1270735;23;1085;-24
2022/04/10 00:31:25;;;;;;;;;;;;;;;;;;1276751;23;1056;-24
2022/04/10 00:31:56;;;;;;;;;;;;;;;;;;1276912;23;871;-24
2022/04/10 00:32:27;;;;;;;;;;;;;;;;;;1277004;23;1472;-23
2022/04/10 00:32:58;;;;;;;;;;;;;;;;;;1282842;23;941;-24
2022/04/10 00:33:28;;;;;;;;;;;;;;;;;;1283344;23;1529;-24
2022/04/10 00:33:58;;;;;;;;;;;;;;;;;;1276721;23;1901;-24
2022/04/10 00:34:29;;;;;;;;;;;;;;;;;;1283219;23;1659;-24
2022/04/10 00:34:59;;;;;;;;;;;;;;;;;;1282933;23;1037;-24
2022/04/10 00:35:30;;;;;;;;;;;;;;;;;;1283533;23;1192;-24
2022/04/10 00:36:00;;;;;;;;;;;;;;;;;;1282567;23;1493;-24
2022/04/10 00:36:30;;;;;;;;;;;;;;;;;;1283429;23;964;-24
2022/04/10 00:37:01;;;;;;;;;;;;;;;;;;1283029;23;1285;-24
2022/04/10 00:37:32;;;;;;;;;;;;;;;;;;1283241;23;948;-24
2022/04/10 00:38:02;;;;;;;;;;;;;;;;;;1282982;23;1287;-25
2022/04/10 00:38:32;;;;;;;;;;;;;;;;;;1283183;23;952;-24
2022/04/10 00:39:03;;;;;;;;;;;;;;;;;;1283102;23;1007;-24
2022/04/10 00:39:33;;;;;;;;;;;;;;;;;;1283224;23;996;-24
2022/04/10 00:40:05;;;;;;;;;;;;;;;;;;1283644;23;949;-24
2022/04/10 00:40:35;;;;;;;;;;;;;;;;;;1283582;23;1129;-24
2022/04/10 00:41:05;;;;;;;;;;;;;;;;;;1283326;23;1308;-24
2022/04/10 00:41:36;;;;;;;;;;;;;;;;;;1283688;23;932;-24
2022/04/10 00:42:06;;;;;;;;;;;;;;;;;;1283454;23;963;-24
2022/04/10 00:42:37;;;;;;;;;;;;;;;;;;1283654;23;987;-24
2022/04/10 00:43:08;;;;;;;;;;;;;;;;;;1283654;23;1062;-24
2022/04/10 00:43:39;;;;;;;;;;;;;;;;;;1282936;23;1571;-24
2022/04/10 00:44:10;;;;;;;;;;;;;;;;;;1283137;23;925;-24
2022/04/10 00:44:41;;;;;;;;;;;;;;;;;;1283260;23;1214;-24
2022/04/10 00:45:12;;;;;;;;;;;;;;;;;;1282994;23;1194;-24
2022/04/10 00:45:42;;;;;;;;;;;;;;;;;;1283714;23;928;-24
2022/04/10 00:46:13;;;;;;;;;;;;;;;;;;1283324;23;1491;-24
2022/04/10 00:46:43;;;;;;;;;;;;;;;;;;1283566;23;1118;-24
2022/04/10 00:47:14;;;;;;;;;;;;;;;;;;1283641;23;1203;-24
2022/04/10 00:47:45;;;;;;;;;;;;;;;;;;1283710;23;821;-25
2022/04/10 00:48:15;;;;;;;;;;;;;;;;;;1283397;23;963;-23
2022/04/10 00:48:46;;;;;;;;;;;;;;;;;;1283806;23;1032;-24
2022/04/10 00:49:19;;;;;;;;;;;;;;;;;;1283440;23;999;-24
2022/04/10 00:49:49;;;;;;;;;;;;;;;;;;1283592;23;1225;-24
2022/04/10 00:50:20;;;;;;;;;;;;;;;;;;1283396;23;849;-24
2022/04/10 00:51:46;;;;;;;;;;;;;;;;;;1283010;23;881;-24
2022/04/10 00:52:18;;;;;;;;;;;;;;;;;;1283133;23;1011;-24
2022/04/10 00:52:49;;;;;;;;;;;;;;;;;;1288745;23;1392;-25
2022/04/10 00:53:20;;;;;;;;;;;;;;;;;;1289260;23;885;-24
2022/04/10 00:53:50;;;;;;;;;;;;;;;;;;1289499;23;1928;-24
2022/04/10 00:54:24;;;;;;;;;;;;;;;;;;1282852;23;1211;-24
2022/04/10 00:54:55;;;;;;;;;;;;;;;;;;1283153;23;983;-25
2022/04/10 00:55:26;;;;;;;;;;;;;;;;;;1283167;23;1061;-24
2022/04/10 00:55:56;;;;;;;;;;;;;;;;;;1283055;23;968;-24
2022/04/10 00:56:29;;;;;;;;;;;;;;;;;;1283753;23;998;-24
2022/04/10 00:57:00;;;;;;;;;;;;;;;;;;1288919;23;1522;-24
2022/04/10 00:57:31;;;;;;;;;;;;;;;;;;1289693;23;971;-24
2022/04/10 00:58:01;;;;;;;;;;;;;;;;;;1289193;23;889;-24
2022/04/10 00:58:32;;;;;;;;;;;;;;;;;;1289480;23;1413;-24
2022/04/10 00:59:02;;;;;;;;;;;;;;;;;;1289238;23;900;-24
2022/04/10 00:59:33;;;;;;;;;;;;;;;;;;1289521;23;935;-24
2022/04/10 01:00:09;;;;;;;;;;;;;;;;;;1289144;23;1105;-24
2022/04/10 01:00:39;;;;;;;;;;;;;;;;;;1289574;23;1143;-24
2022/04/10 01:01:10;;;;;;;;;;;;;;;;;;1282752;23;1254;-24
2022/04/10 01:01:45;;;;;;;;;;;;;;;;;;1282963;23;1214;-24
2022/04/10 01:02:16;;;;;;;;;;;;;;;;;;1282917;23;1039;-24
2022/04/10 01:02:47;;;;;;;;;;;;;;;;;;1283161;23;1203;-24
2022/04/10 01:03:17;;;;;;;;;;;;;;;;;;1281769;23;1601;-24
2022/04/10 01:03:48;;;;;;;;;;;;;;;;;;1270762;23;1172;-24
2022/04/10 01:04:19;;;;;;;;;;;;;;;;;;1264656;23;1405;-24
2022/04/10 01:04:49;;;;;;;;;;;;;;;;;;1270949;23;1294;-24
2022/04/10 01:05:19;;;;;;;;;;;;;;;;;;1276846;23;953;-24
2022/04/10 01:05:50;;;;;;;;;;;;;;;;;;1283179;23;1297;-24
2022/04/10 01:06:21;;;;;;;;;;;;;;;;;;1282858;23;1245;-24
2022/04/10 01:06:53;;;;;;;;;;;;;;;;;;1289287;23;1199;-24
2022/04/10 01:07:25;;;;;;;;;;;;;;;;;;1288565;23;968;-24
2022/04/10 01:07:56;;;;;;;;;;;;;;;;;;1277898;23;2013;-24
2022/04/10 01:08:26;;;;;;;;;;;;;;;;;;1282898;23;923;-23
2022/04/10 01:08:57;;;;;;;;;;;;;;;;;;1283082;23;1131;-24
2022/04/10 01:09:28;;;;;;;;;;;;;;;;;;1283500;23;888;-24
2022/04/10 01:09:58;;;;;;;;;;;;;;;;;;1289414;23;1143;-24
2022/04/10 01:10:28;;;;;;;;;;;;;;;;;;1283075;23;1311;-24
2022/04/10 01:10:59;;;;;;;;;;;;;;;;;;1282962;23;1127;-24
2022/04/10 01:11:30;;;;;;;;;;;;;;;;;;1276977;23;985;-24
2022/04/10 01:12:01;;;;;;;;;;;;;;;;;;1276798;23;1691;-24
2022/04/10 01:12:34;;;;;;;;;;;;;;;;;;1283354;23;944;-24
2022/04/10 01:13:09;;;;;;;;;;;;;;;;;;1276453;23;1423;-24
2022/04/10 01:13:40;;;;;;;;;;;;;;;;;;1278682;23;1959;-24
2022/04/10 01:14:13;;;;;;;;;;;;;;;;;;1282790;23;1028;-23
2022/04/10 01:14:44;;;;;;;;;;;;;;;;;;1276997;23;1282;-24
2022/04/10 01:15:17;;;;;;;;;;;;;;;;;;1271929;23;1306;-24
2022/04/10 01:15:50;;;;;;;;;;;;;;;;;;1276972;23;1211;-24
2022/04/10 01:16:21;;;;;;;;;;;;;;;;;;1278677;23;918;-24
2022/04/10 01:16:52;;;;;;;;;;;;;;;;;;1277197;23;1245;-24
2022/04/10 01:17:23;;;;;;;;;;;;;;;;;;1271045;23;1251;-24
2022/04/10 01:17:55;;;;;;;;;;;;;;;;;;1277730;23;917;-24
2022/04/10 01:18:26;;;;;;;;;;;;;;;;;;1277454;23;1346;-24
2022/04/10 01:18:56;;;;;;;;;;;;;;;;;;1277912;23;1261;-24
2022/04/10 01:19:28;;;;;;;;;;;;;;;;;;1277342;23;1010;-24
2022/04/10 01:20:02;;;;;;;;;;;;;;;;;;1277036;23;1160;-24
2022/04/10 01:20:37;;;;;;;;;;;;;;;;;;1273571;23;1232;-24
2022/04/10 01:21:14;;;;;;;;;;;;;;;;;;1270749;23;1312;-24
2022/04/10 01:21:48;;;;;;;;;;;;;;;;;;1271494;23;1382;-24
2022/04/10 01:22:32;;;;;;;;;;;;;;;;;;1276005;23;937;-24
2022/04/10 01:23:04;;;;;;;;;;;;;;;;;;1287723;23;2452;-26
2022/04/10 01:23:34;;;;;;;;;;;;;;;;;;1279868;23;1432;-24
2022/04/10 01:24:05;;;;;;;;;;;;;;;;;;1277127;23;929;-24
2022/04/10 01:24:37;;;;;;;;;;;;;;;;;;1277930;23;1123;-24
2022/04/10 01:25:08;;;;;;;;;;;;;;;;;;1277332;23;1017;-23
2022/04/10 01:25:41;;;;;;;;;;;;;;;;;;1277581;23;1379;-24
2022/04/10 01:26:12;;;;;;;;;;;;;;;;;;1270723;23;1297;-24
2022/04/10 01:26:44;;;;;;;;;;;;;;;;;;1272546;23;1040;-24
2022/04/10 01:27:15;;;;;;;;;;;;;;;;;;1277671;23;1073;-24
2022/04/10 01:27:45;;;;;;;;;;;;;;;;;;1277403;23;1128;-24
2022/04/10 01:28:17;;;;;;;;;;;;;;;;;;1277194;23;1186;-24
2022/04/10 01:29:03;;;;;;;;;;;;;;;;;;1277552;23;925;-24
2022/04/10 01:29:36;;;;;;;;;;;;;;;;;;1281453;23;1108;-24
2022/04/10 01:30:09;;;;;;;;;;;;;;;;;;1281082;23;1153;-24
2022/04/10 01:30:39;;;;;;;;;;;;;;;;;;1277330;23;1116;-24
2022/04/10 01:31:10;;;;;;;;;;;;;;;;;;1270808;23;1182;-24
2022/04/10 01:31:42;;;;;;;;;;;;;;;;;;1271910;23;902;-24
2022/04/10 01:32:12;;;;;;;;;;;;;;;;;;1277444;23;1089;-23
2022/04/10 01:32:44;;;;;;;;;;;;;;;;;;1278019;23;1258;-24
2022/04/10 01:33:14;;;;;;;;;;;;;;;;;;1276898;23;1234;-24
2022/04/10 01:33:46;;;;;;;;;;;;;;;;;;1270977;23;1952;-24
2022/04/10 01:34:16;;;;;;;;;;;;;;;;;;1271223;23;876;-24
2022/04/10 01:34:47;;;;;;;;;;;;;;;;;;1271429;23;1236;-24
2022/04/10 01:35:21;;;;;;;;;;;;;;;;;;1277130;23;937;-24
2022/04/10 01:35:53;;;;;;;;;;;;;;;;;;1271134;23;1155;-24
2022/04/10 01:36:25;;;;;;;;;;;;;;;;;;1266082;23;1340;-24
2022/04/10 01:36:55;;;;;;;;;;;;;;;;;;1272568;23;1029;-24
2022/04/10 01:37:27;;;;;;;;;;;;;;;;;;1271252;23;1118;-24
2022/04/10 01:37:58;;;;;;;;;;;;;;;;;;1277622;23;1137;-24
2022/04/10 01:38:34;;;;;;;;;;;;;;;;;;1283537;23;1006;-24
2022/04/10 01:39:05;;;;;;;;;;;;;;;;;;1285000;23;928;-24
2022/04/10 01:39:36;;;;;;;;;;;;;;;;;;1288345;23;960;-24
2022/04/10 01:40:07;;;;;;;;;;;;;;;;;;1283113;23;1262;-24
2022/04/10 01:40:38;;;;;;;;;;;;;;;;;;1277432;23;1102;-24
2022/04/10 01:41:15;;;;;;;;;;;;;;;;;;1270842;23;1151;-24
2022/04/10 01:41:46;;;;;;;;;;;;;;;;;;1277389;23;1548;-24
2022/04/10 01:42:17;;;;;;;;;;;;;;;;;;1278621;23;1180;-24
2022/04/10 01:42:47;;;;;;;;;;;;;;;;;;1275578;23;1360;-24
2022/04/10 01:43:17;;;;;;;;;;;;;;;;;;1271249;23;1061;-27
2022/04/10 01:43:49;;;;;;;;;;;;;;;;;;1271158;23;1112;-24
2022/04/10 01:44:19;;;;;;;;;;;;;;;;;;1277278;23;1048;-24
2022/04/10 01:44:50;;;;;;;;;;;;;;;;;;1283633;23;1251;-24
2022/04/10 01:45:22;;;;;;;;;;;;;;;;;;1277526;23;1354;-24
2022/04/10 01:45:53;;;;;;;;;;;;;;;;;;1283665;23;1008;-24
2022/04/10 01:46:24;;;;;;;;;;;;;;;;;;1283402;23;1132;-24
2022/04/10 01:46:54;;;;;;;;;;;;;;;;;;1283616;23;1287;-24
2022/04/10 01:47:24;;;;;;;;;;;;;;;;;;1289648;23;920;-24
2022/04/10 01:47:55;;;;;;;;;;;;;;;;;;1283586;23;1397;-24
2022/04/10 01:48:26;;;;;;;;;;;;;;;;;;1283037;23;1044;-24
2022/04/10 01:48:57;;;;;;;;;;;;;;;;;;1283814;23;932;-24
2022/04/10 01:49:27;;;;;;;;;;;;;;;;;;1283519;23;921;-24
2022/04/10 01:49:58;;;;;;;;;;;;;;;;;;1283276;23;1239;-24
2022/04/10 01:50:28;;;;;;;;;;;;;;;;;;1283608;23;857;-24
2022/04/10 01:50:59;;;;;;;;;;;;;;;;;;1283291;23;1298;-24
2022/04/10 01:51:30;;;;;;;;;;;;;;;;;;1277359;23;1507;-24
2022/04/10 01:52:00;;;;;;;;;;;;;;;;;;1283406;23;1253;-24
2022/04/10 01:52:31;;;;;;;;;;;;;;;;;;1283447;23;1059;-24
2022/04/10 01:53:05;;;;;;;;;;;;;;;;;;1283251;23;1023;-24
2022/04/10 01:53:36;;;;;;;;;;;;;;;;;;1289738;23;1407;-24
2022/04/10 01:54:07;;;;;;;;;;;;;;;;;;1283043;23;1897;-24
2022/04/10 01:54:37;;;;;;;;;;;;;;;;;;1283568;23;1367;-24
2022/04/10 01:55:08;;;;;;;;;;;;;;;;;;1283244;23;1426;-24
2022/04/10 01:55:38;;;;;;;;;;;;;;;;;;1283420;23;1263;-24
2022/04/10 01:56:09;;;;;;;;;;;;;;;;;;1276883;23;1239;-24
2022/04/10 01:56:41;;;;;;;;;;;;;;;;;;1277428;23;1182;-24
2022/04/10 01:57:11;;;;;;;;;;;;;;;;;;1271235;23;1328;-24
2022/04/10 01:57:43;;;;;;;;;;;;;;;;;;1277742;23;1160;-24
2022/04/10 01:58:14;;;;;;;;;;;;;;;;;;1276360;23;1128;-24
2022/04/10 01:58:46;;;;;;;;;;;;;;;;;;1265102;23;1248;-24
2022/04/10 01:59:16;;;;;;;;;;;;;;;;;;1271535;23;1179;-24
2022/04/10 01:59:47;;;;;;;;;;;;;;;;;;1277390;23;1001;-24
2022/04/10 02:00:17;;;;;;;;;;;;;;;;;;1271265;23;1504;-24
2022/04/10 02:00:49;;;;;;;;;;;;;;;;;;1271579;23;1331;-24
2022/04/10 02:01:20;;;;;;;;;;;;;;;;;;1270839;23;1136;-24
2022/04/10 02:01:51;;;;;;;;;;;;;;;;;;1271720;23;1106;-24
2022/04/10 02:02:21;;;;;;;;;;;;;;;;;;1277450;23;889;-24
2022/04/10 02:02:51;;;;;;;;;;;;;;;;;;1283392;23;1249;-24
2022/04/10 02:03:23;;;;;;;;;;;;;;;;;;1289607;23;920;-24
2022/04/10 02:03:54;;;;;;;;;;;;;;;;;;1289805;23;904;-24
2022/04/10 02:04:24;;;;;;;;;;;;;;;;;;1283262;23;885;-24
2022/04/10 02:04:55;;;;;;;;;;;;;;;;;;1283651;23;877;-24
2022/04/10 02:05:26;;;;;;;;;;;;;;;;;;1283068;23;1352;-24
2022/04/10 02:05:57;;;;;;;;;;;;;;;;;;1277675;23;1334;-26
2022/04/10 02:06:28;;;;;;;;;;;;;;;;;;1283596;23;854;-24
2022/04/10 02:06:58;;;;;;;;;;;;;;;;;;1283367;23;872;-24
2022/04/10 02:07:30;;;;;;;;;;;;;;;;;;1283871;23;1187;-24
2022/04/10 02:08:02;;;;;;;;;;;;;;;;;;1289472;23;943;-25
2022/04/10 02:08:34;;;;;;;;;;;;;;;;;;1283382;23;1596;-23
2022/04/10 02:09:07;;;;;;;;;;;;;;;;;;1283197;23;1222;-24
2022/04/10 02:09:39;;;;;;;;;;;;;;;;;;1277251;23;1150;-24
2022/04/10 02:10:09;;;;;;;;;;;;;;;;;;1272200;23;1278;-25
2022/04/10 02:10:40;;;;;;;;;;;;;;;;;;1271153;23;1243;-24
2022/04/10 02:11:14;;;;;;;;;;;;;;;;;;1271009;23;1261;-24
2022/04/10 02:11:47;;;;;;;;;;;;;;;;;;1271046;23;1470;-24
2022/04/10 02:12:18;;;;;;;;;;;;;;;;;;1270876;23;1275;-24
2022/04/10 02:12:48;;;;;;;;;;;;;;;;;;1272452;23;1064;-24
2022/04/10 02:13:19;;;;;;;;;;;;;;;;;;1277033;23;1059;-24
2022/04/10 02:13:50;;;;;;;;;;;;;;;;;;1283344;23;1908;-24
2022/04/10 02:14:20;;;;;;;;;;;;;;;;;;1283852;23;936;-24
2022/04/10 02:14:51;;;;;;;;;;;;;;;;;;1289502;23;1368;-24
2022/04/10 02:15:22;;;;;;;;;;;;;;;;;;1283393;23;1176;-23
2022/04/10 02:15:52;;;;;;;;;;;;;;;;;;1277162;23;1128;-24
2022/04/10 02:16:23;;;;;;;;;;;;;;;;;;1270871;23;1308;-24
2022/04/10 02:16:53;;;;;;;;;;;;;;;;;;1277216;23;1322;-24
2022/04/10 02:17:25;;;;;;;;;;;;;;;;;;1277260;23;1255;-24
2022/04/10 02:17:55;;;;;;;;;;;;;;;;;;1283284;23;912;-24
2022/04/10 02:18:26;;;;;;;;;;;;;;;;;;1277192;23;1021;-24
2022/04/10 02:18:56;;;;;;;;;;;;;;;;;;1277344;23;1112;-24
2022/04/10 02:19:27;;;;;;;;;;;;;;;;;;1283310;23;1094;-24
2022/04/10 02:19:57;;;;;;;;;;;;;;;;;;1283115;23;953;-24
2022/04/10 02:20:28;;;;;;;;;;;;;;;;;;1277225;23;1136;-24
2022/04/10 02:20:58;;;;;;;;;;;;;;;;;;1277040;23;1778;-24
2022/04/10 02:21:28;;;;;;;;;;;;;;;;;;1271030;23;1152;-24
2022/04/10 02:22:01;;;;;;;;;;;;;;;;;;1271121;23;1218;-24
2022/04/10 02:22:31;;;;;;;;;;;;;;;;;;1270899;23;1214;-24
2022/04/10 02:23:01;;;;;;;;;;;;;;;;;;1271376;23;862;-24
2022/04/10 02:23:32;;;;;;;;;;;;;;;;;;1277554;23;925;-24
2022/04/10 02:24:02;;;;;;;;;;;;;;;;;;1283166;23;1017;-24
2022/04/10 02:24:33;;;;;;;;;;;;;;;;;;1283981;23;932;-24
2022/04/10 02:25:03;;;;;;;;;;;;;;;;;;1283728;23;2133;-24
2022/04/10 02:25:34;;;;;;;;;;;;;;;;;;1283179;23;1406;-24
2022/04/10 02:26:05;;;;;;;;;;;;;;;;;;1276968;23;1172;-24
2022/04/10 02:26:35;;;;;;;;;;;;;;;;;;1277269;23;953;-24
2022/04/10 02:27:06;;;;;;;;;;;;;;;;;;1276777;23;1159;-24
2022/04/10 02:27:36;;;;;;;;;;;;;;;;;;1277621;23;834;-24
2022/04/10 02:28:07;;;;;;;;;;;;;;;;;;1276751;23;1278;-24
2022/04/10 02:28:38;;;;;;;;;;;;;;;;;;1277221;23;1093;-24
2022/04/10 02:29:08;;;;;;;;;;;;;;;;;;1283158;23;944;-24
2022/04/10 02:29:39;;;;;;;;;;;;;;;;;;1283632;23;929;-24
2022/04/10 02:30:10;;;;;;;;;;;;;;;;;;1283213;23;2242;-24
2022/04/10 02:30:41;;;;;;;;;;;;;;;;;;1283376;23;1301;-24
2022/04/10 02:31:11;;;;;;;;;;;;;;;;;;1277144;23;1434;-24
2022/04/10 02:31:42;;;;;;;;;;;;;;;;;;1277153;23;1244;-24
2022/04/10 02:32:12;;;;;;;;;;;;;;;;;;1276989;23;1155;-23
2022/04/10 02:32:42;;;;;;;;;;;;;;;;;;1277322;23;1244;-24
2022/04/10 02:33:13;;;;;;;;;;;;;;;;;;1283005;23;1020;-24
2022/04/10 02:33:43;;;;;;;;;;;;;;;;;;1283094;23;1944;-25
2022/04/10 02:34:13;;;;;;;;;;;;;;;;;;1283311;23;964;-24
2022/04/10 02:34:44;;;;;;;;;;;;;;;;;;1283303;23;1135;-24
2022/04/10 02:35:14;;;;;;;;;;;;;;;;;;1283245;23;1292;-24
2022/04/10 02:35:45;;;;;;;;;;;;;;;;;;1283467;23;933;-24
2022/04/10 02:36:16;;;;;;;;;;;;;;;;;;1283217;23;1186;-24
2022/04/10 02:36:47;;;;;;;;;;;;;;;;;;1283417;23;1231;-24
2022/04/10 02:37:17;;;;;;;;;;;;;;;;;;1283256;23;1445;-24
2022/04/10 02:37:49;;;;;;;;;;;;;;;;;;1277139;23;1448;-24
2022/04/10 02:38:19;;;;;;;;;;;;;;;;;;1277294;23;1124;-24
2022/04/10 02:38:50;;;;;;;;;;;;;;;;;;1276891;23;1214;-24
2022/04/10 02:39:20;;;;;;;;;;;;;;;;;;1277004;23;1120;-24
2022/04/10 02:39:51;;;;;;;;;;;;;;;;;;1277173;23;1168;-24
2022/04/10 02:40:21;;;;;;;;;;;;;;;;;;1277122;23;1148;-24
2022/04/10 02:40:54;;;;;;;;;;;;;;;;;;1277057;23;1309;-24
2022/04/10 02:41:25;;;;;;;;;;;;;;;;;;1271416;23;1514;-24
2022/04/10 02:41:58;;;;;;;;;;;;;;;;;;1271814;23;1254;-25
2022/04/10 02:42:28;;;;;;;;;;;;;;;;;;1270950;23;941;-24
2022/04/10 02:43:00;;;;;;;;;;;;;;;;;;1265790;23;1431;-24
2022/04/10 02:43:30;;;;;;;;;;;;;;;;;;1271386;23;1132;-24
2022/04/10 02:44:06;;;;;;;;;;;;;;;;;;1271923;23;1128;-24
2022/04/10 02:44:36;;;;;;;;;;;;;;;;;;1277413;23;986;-24
2022/04/10 02:45:07;;;;;;;;;;;;;;;;;;1277874;23;1268;-24
2022/04/10 02:45:37;;;;;;;;;;;;;;;;;;1277341;23;1116;-24
2022/04/10 02:46:08;;;;;;;;;;;;;;;;;;1283355;23;935;-25
2022/04/10 02:46:44;;;;;;;;;;;;;;;;;;1277222;23;1311;-24
2022/04/10 02:47:14;;;;;;;;;;;;;;;;;;1272074;23;1175;-24
2022/04/10 02:47:45;;;;;;;;;;;;;;;;;;1277126;23;894;-24
2022/04/10 02:48:15;;;;;;;;;;;;;;;;;;1277008;23;977;-24
2022/04/10 02:48:45;;;;;;;;;;;;;;;;;;1283382;23;1256;-24
2022/04/10 02:49:20;;;;;;;;;;;;;;;;;;1282963;23;1284;-24
2022/04/10 02:49:50;;;;;;;;;;;;;;;;;;1277197;23;1215;-24
2022/04/10 02:50:20;;;;;;;;;;;;;;;;;;1270916;23;1327;-24
2022/04/10 02:50:51;;;;;;;;;;;;;;;;;;1270803;23;1174;-24
2022/04/10 02:51:21;;;;;;;;;;;;;;;;;;1277063;23;1058;-24
2022/04/10 02:51:56;;;;;;;;;;;;;;;;;;1271644;23;1188;-25
2022/04/10 02:52:26;;;;;;;;;;;;;;;;;;1277009;23;1405;-24
2022/04/10 02:52:57;;;;;;;;;;;;;;;;;;1271952;23;1251;-24
2022/04/10 02:53:27;;;;;;;;;;;;;;;;;;1276959;23;897;-25
2022/04/10 02:53:58;;;;;;;;;;;;;;;;;;1276796;23;1943;-24
2022/04/10 02:54:28;;;;;;;;;;;;;;;;;;1271044;23;1315;-24
2022/04/10 02:54:59;;;;;;;;;;;;;;;;;;1276998;23;1017;-25
2022/04/10 02:55:29;;;;;;;;;;;;;;;;;;1277311;23;1128;-24
2022/04/10 02:56:00;;;;;;;;;;;;;;;;;;1283117;23;853;-24
2022/04/10 02:56:30;;;;;;;;;;;;;;;;;;1283456;23;1522;-24
2022/04/10 02:57:00;;;;;;;;;;;;;;;;;;1276891;23;1280;-24
2022/04/10 02:57:31;;;;;;;;;;;;;;;;;;1277146;23;1255;-24
2022/04/10 02:58:01;;;;;;;;;;;;;;;;;;1277131;23;954;-24
2022/04/10 02:58:32;;;;;;;;;;;;;;;;;;1277016;23;1405;-24
2022/04/10 02:59:02;;;;;;;;;;;;;;;;;;1276887;23;1199;-24
2022/04/10 02:59:34;;;;;;;;;;;;;;;;;;1270926;23;1172;-24
2022/04/10 03:00:04;;;;;;;;;;;;;;;;;;1264910;23;1004;-24
2022/04/10 03:00:35;;;;;;;;;;;;;;;;;;1265556;23;1205;-24
2022/04/10 03:01:06;;;;;;;;;;;;;;;;;;1271171;23;1029;-24
2022/04/10 03:01:39;;;;;;;;;;;;;;;;;;1278355;23;1644;-24
2022/04/10 03:02:10;;;;;;;;;;;;;;;;;;1277728;23;1274;-24
2022/04/10 03:02:43;;;;;;;;;;;;;;;;;;1283400;23;919;-24
2022/04/10 03:03:14;;;;;;;;;;;;;;;;;;1283291;23;1012;-24
2022/04/10 03:03:44;;;;;;;;;;;;;;;;;;1283839;23;1369;-24
2022/04/10 03:04:16;;;;;;;;;;;;;;;;;;1282998;23;1223;-24
2022/04/10 03:04:47;;;;;;;;;;;;;;;;;;1283415;23;1025;-24
2022/04/10 03:05:17;;;;;;;;;;;;;;;;;;1283159;23;949;-24
2022/04/10 03:05:49;;;;;;;;;;;;;;;;;;1283827;23;1115;-24
2022/04/10 03:06:19;;;;;;;;;;;;;;;;;;1289577;23;965;-24
2022/04/10 03:06:51;;;;;;;;;;;;;;;;;;1289494;23;1155;-24
2022/04/10 03:07:21;;;;;;;;;;;;;;;;;;1283337;23;1174;-24
2022/04/10 03:07:52;;;;;;;;;;;;;;;;;;1283268;23;1046;-24
2022/04/10 03:08:24;;;;;;;;;;;;;;;;;;1283181;23;1572;-24
2022/04/10 03:08:55;;;;;;;;;;;;;;;;;;1283346;23;1210;-24
2022/04/10 03:09:25;;;;;;;;;;;;;;;;;;1283053;23;948;-24
2022/04/10 03:09:57;;;;;;;;;;;;;;;;;;1276946;23;1466;-24
2022/04/10 03:10:29;;;;;;;;;;;;;;;;;;1271359;23;1164;-24
2022/04/10 03:11:03;;;;;;;;;;;;;;;;;;1276938;23;1439;-24
2022/04/10 03:11:34;;;;;;;;;;;;;;;;;;1272248;23;1318;-24
2022/04/10 03:12:05;;;;;;;;;;;;;;;;;;1271785;23;1327;-24
2022/04/10 03:12:38;;;;;;;;;;;;;;;;;;1271047;23;1116;-24
2022/04/10 03:13:08;;;;;;;;;;;;;;;;;;1271226;23;1113;-24
2022/04/10 03:13:38;;;;;;;;;;;;;;;;;;1271643;23;1207;-24
2022/04/10 03:14:11;;;;;;;;;;;;;;;;;;1276945;23;1893;-24
2022/04/10 03:14:41;;;;;;;;;;;;;;;;;;1277027;23;1176;-24
2022/04/10 03:15:15;;;;;;;;;;;;;;;;;;1271720;23;1239;-24
2022/04/10 03:15:45;;;;;;;;;;;;;;;;;;1277092;23;1045;-24
2022/04/10 03:16:17;;;;;;;;;;;;;;;;;;1278109;23;1339;-24
2022/04/10 03:16:48;;;;;;;;;;;;;;;;;;1277654;23;1163;-24
2022/04/10 03:17:21;;;;;;;;;;;;;;;;;;1276855;23;1319;-24
2022/04/10 03:17:51;;;;;;;;;;;;;;;;;;1277102;23;1287;-24
2022/04/10 03:18:22;;;;;;;;;;;;;;;;;;1283039;23;1296;-24
2022/04/10 03:18:52;;;;;;;;;;;;;;;;;;1283205;23;947;-24
2022/04/10 03:19:23;;;;;;;;;;;;;;;;;;1283205;23;1571;-24
2022/04/10 03:19:54;;;;;;;;;;;;;;;;;;1283008;23;1325;-24
2022/04/10 03:20:24;;;;;;;;;;;;;;;;;;1283193;23;1069;-24
2022/04/10 03:20:54;;;;;;;;;;;;;;;;;;1277060;23;1199;-24
2022/04/10 03:21:26;;;;;;;;;;;;;;;;;;1277042;23;1371;-25
2022/04/10 03:21:56;;;;;;;;;;;;;;;;;;1283330;23;1362;-24
2022/04/10 03:22:27;;;;;;;;;;;;;;;;;;1276991;23;1143;-24
2022/04/10 03:22:58;;;;;;;;;;;;;;;;;;1270657;23;1188;-24
2022/04/10 03:23:28;;;;;;;;;;;;;;;;;;1271309;23;956;-24
2022/04/10 03:23:59;;;;;;;;;;;;;;;;;;1270883;23;1220;-24
2022/04/10 03:24:29;;;;;;;;;;;;;;;;;;1270951;23;1254;-24
2022/04/10 03:25:00;;;;;;;;;;;;;;;;;;1270606;23;1662;-24
2022/04/10 03:25:31;;;;;;;;;;;;;;;;;;1265280;23;1221;-24
2022/04/10 03:26:01;;;;;;;;;;;;;;;;;;1264823;23;1238;-24
2022/04/10 03:26:34;;;;;;;;;;;;;;;;;;1271859;23;1615;-25
2022/04/10 03:27:05;;;;;;;;;;;;;;;;;;1271202;23;1199;-24
2022/04/10 03:27:36;;;;;;;;;;;;;;;;;;1271504;23;1318;-24
2022/04/10 03:28:06;;;;;;;;;;;;;;;;;;1270600;23;1532;-25
2022/04/10 03:28:37;;;;;;;;;;;;;;;;;;1277464;23;1258;-24
2022/04/10 03:29:07;;;;;;;;;;;;;;;;;;1282855;23;1011;-24
2022/04/10 03:29:38;;;;;;;;;;;;;;;;;;1277230;23;1270;-24
2022/04/10 03:30:09;;;;;;;;;;;;;;;;;;1276637;23;1081;-24
2022/04/10 03:30:39;;;;;;;;;;;;;;;;;;1277154;23;1180;-24
2022/04/10 03:31:11;;;;;;;;;;;;;;;;;;1277230;23;927;-24
2022/04/10 03:31:41;;;;;;;;;;;;;;;;;;1283095;23;1323;-24
2022/04/10 03:32:12;;;;;;;;;;;;;;;;;;1277146;23;1184;-24
2022/04/10 03:32:44;;;;;;;;;;;;;;;;;;1277324;23;1255;-24
2022/04/10 03:33:15;;;;;;;;;;;;;;;;;;1270951;23;1296;-24
2022/04/10 03:33:46;;;;;;;;;;;;;;;;;;1271570;23;1960;-24
2022/04/10 03:34:17;;;;;;;;;;;;;;;;;;1277556;23;1223;-24
2022/04/10 03:34:47;;;;;;;;;;;;;;;;;;1283726;23;1307;-24
2022/04/10 03:35:18;;;;;;;;;;;;;;;;;;1283065;23;939;-24
2022/04/10 03:35:49;;;;;;;;;;;;;;;;;;1283217;23;1329;-24
2022/04/10 03:36:20;;;;;;;;;;;;;;;;;;1277421;23;1195;-24
2022/04/10 03:36:50;;;;;;;;;;;;;;;;;;1283384;23;1431;-24
2022/04/10 03:37:20;;;;;;;;;;;;;;;;;;1283463;23;1047;-25
2022/04/10 03:37:51;;;;;;;;;;;;;;;;;;1283300;23;1143;-25